createdAt,value
2018-11-12T00:00:03.122Z,3.10
2018-11-12T00:05:06.738Z,3.30
2018-11-12T00:10:10.671Z,4.03
2018-11-12T00:15:14.496Z,3.80
2018-11-12T00:20:18.508Z,4.07
2018-11-12T00:25:22.199Z,5.30
2018-11-12T00:30:25.788Z,7.17
2018-11-12T00:35:29.374Z,7.57
2018-11-12T00:40:33.074Z,7.60
2018-11-12T00:45:38.575Z,7.90
2018-11-12T00:50:43.230Z,8.20
2018-11-12T00:55:46.927Z,7.47
2018-11-12T01:00:50.565Z,6.97
2018-11-12T01:05:54.264Z,5.80
2018-11-12T01:10:57.839Z,5.77
2018-11-12T01:16:03.116Z,5.83
2018-11-12T01:21:10.710Z,6.17
2018-11-12T01:26:14.265Z,5.20
2018-11-12T01:31:18.042Z,5.57
2018-11-12T01:36:21.627Z,6.03
2018-11-12T01:41:25.203Z,6.10
2018-11-12T01:46:28.865Z,5.70
2018-11-12T01:51:32.470Z,5.60
2018-11-12T01:56:36.083Z,5.20
2018-11-12T02:01:39.759Z,5.17
2018-11-12T02:06:43.230Z,5.60
2018-11-12T02:11:46.772Z,4.43
2018-11-12T02:16:50.341Z,4.70
2018-11-12T02:21:53.915Z,4.70
2018-11-12T02:26:57.485Z,4.30
2018-11-12T02:32:01.039Z,4.30
2018-11-12T02:37:05.025Z,4.30
2018-11-12T02:42:08.546Z,4.50
2018-11-12T02:47:12.211Z,4.73
2018-11-12T02:52:15.955Z,4.97
2018-11-12T02:57:19.491Z,4.83
2018-11-12T03:02:23.043Z,5.33
2018-11-12T03:07:26.709Z,5.07
2018-11-12T03:12:30.226Z,5.03
2018-11-12T03:17:33.971Z,4.63
2018-11-12T03:22:37.636Z,4.70
2018-11-12T03:27:44.979Z,4.07
2018-11-12T03:32:49.867Z,4.37
2018-11-12T03:37:54.553Z,4.23
2018-11-12T03:42:58.140Z,3.87
2018-11-12T03:48:03.547Z,4.43
2018-11-12T03:53:07.062Z,4.60
2018-11-12T03:58:10.598Z,4.60
2018-11-12T04:03:17.983Z,4.80
2018-11-12T04:08:21.566Z,4.70
2018-11-12T04:13:25.143Z,4.47
2018-11-12T04:18:28.729Z,4.63
2018-11-12T04:23:33.582Z,4.77
2018-11-12T04:28:37.126Z,3.90
2018-11-12T04:33:41.833Z,4.53
2018-11-12T04:38:49.318Z,4.30
2018-11-12T04:43:53.000Z,5.13
2018-11-12T04:48:56.790Z,4.70
2018-11-12T04:54:00.347Z,4.20
2018-11-12T04:59:05.793Z,5.03
2018-11-12T05:04:09.540Z,4.77
2018-11-12T05:09:13.122Z,5.30
2018-11-12T05:14:18.163Z,4.70
2018-11-12T05:19:21.786Z,4.93
2018-11-12T05:24:25.333Z,4.40
2018-11-12T05:29:33.479Z,4.90
2018-11-12T05:34:37.046Z,4.80
2018-11-12T05:39:42.855Z,5.10
2018-11-12T05:44:48.608Z,4.77
2018-11-12T05:49:52.472Z,5.20
2018-11-12T05:54:56.258Z,4.73
2018-11-12T06:00:06.276Z,5.00
2018-11-12T06:05:11.808Z,5.20
2018-11-12T06:10:18.744Z,5.13
2018-11-12T06:15:22.803Z,5.47
2018-11-12T06:20:28.775Z,5.70
2018-11-12T06:25:33.861Z,6.20
2018-11-12T06:30:37.972Z,5.33
2018-11-12T06:35:45.614Z,5.00
2018-11-12T06:40:49.218Z,4.97
2018-11-12T06:45:52.830Z,4.80
2018-11-12T06:50:56.481Z,4.77
2018-11-12T06:56:00.062Z,4.43
2018-11-12T07:01:03.830Z,4.60
2018-11-12T07:06:09.507Z,7.30
2018-11-12T07:11:19.645Z,5.93
2018-11-12T07:16:23.467Z,6.83
2018-11-12T07:21:27.492Z,7.83
2018-11-12T07:26:31.310Z,4.40
2018-11-12T07:31:35.424Z,7.10
2018-11-12T07:36:39.071Z,7.10
2018-11-12T07:41:45.996Z,4.80
2018-11-12T07:46:49.679Z,4.63
2018-11-12T07:51:53.247Z,4.37
2018-11-12T07:56:56.898Z,2.57
2018-11-12T08:02:00.487Z,2.23
2018-11-12T08:07:04.294Z,2.23
2018-11-12T08:12:07.882Z,2.00
2018-11-12T08:17:11.632Z,1.73
2018-11-12T08:22:15.437Z,1.70
2018-11-12T08:27:23.481Z,1.63
2018-11-12T08:32:27.152Z,2.20
2018-11-12T08:37:30.767Z,2.27
2018-11-12T08:42:34.373Z,2.53
2018-11-12T08:47:38.803Z,2.83
2018-11-12T08:52:43.693Z,3.40
2018-11-12T08:57:50.475Z,3.77
2018-11-12T09:02:54.126Z,3.80
2018-11-12T09:07:59.450Z,3.30
2018-11-12T09:13:03.220Z,3.17
2018-11-12T09:18:06.946Z,3.93
2018-11-12T09:23:10.849Z,4.10
2018-11-12T09:28:14.468Z,3.90
2018-11-12T09:33:18.391Z,4.13
2018-11-12T09:38:24.213Z,5.03
2018-11-12T09:43:27.941Z,3.57
2018-11-12T09:48:31.578Z,4.00
2018-11-12T09:53:35.300Z,3.40
2018-11-12T09:58:39.083Z,3.00
2018-11-12T10:03:44.889Z,2.30
2018-11-12T10:08:50.082Z,2.60
2018-11-12T10:13:55.249Z,2.40
2018-11-12T10:18:56.714Z,3.73
2018-11-12T10:24:02.421Z,3.00
2018-11-12T10:29:06.631Z,2.70
2018-11-12T10:34:12.364Z,2.00
2018-11-12T10:39:17.330Z,1.40
2018-11-12T10:44:21.010Z,1.13
2018-11-12T10:49:24.686Z,1.23
2018-11-12T10:54:29.379Z,1.50
2018-11-12T10:59:32.921Z,1.17
2018-11-12T11:04:36.498Z,1.30
2018-11-12T11:09:40.204Z,1.20
2018-11-12T11:14:43.921Z,1.10
2018-11-12T11:19:47.792Z,1.40
2018-11-12T11:24:51.624Z,1.20
2018-11-12T11:29:55.645Z,1.20
2018-11-12T11:35:00.366Z,1.00
2018-11-12T11:40:06.958Z,1.10
2018-11-12T11:45:12.204Z,1.07
2018-11-12T11:50:18.330Z,1.07
2018-11-12T11:55:23.044Z,1.10
2018-11-12T12:00:31.259Z,1.30
2018-11-12T12:05:34.906Z,1.03
2018-11-12T12:10:38.578Z,1.10
2018-11-12T12:15:42.314Z,1.20
2018-11-12T12:20:45.919Z,1.10
2018-11-12T12:25:49.741Z,1.20
2018-11-12T12:30:53.384Z,1.30
2018-11-12T12:35:59.087Z,1.20
2018-11-12T12:41:02.729Z,1.30
2018-11-12T12:46:06.923Z,1.00
2018-11-12T12:51:10.559Z,1.20
2018-11-12T12:56:16.667Z,1.13
2018-11-12T13:01:20.360Z,0.90
2018-11-12T13:06:23.992Z,1.07
2018-11-12T13:11:29.851Z,1.33
2018-11-12T13:16:33.654Z,0.80
2018-11-12T13:21:38.635Z,1.23
2018-11-12T13:26:42.488Z,0.90
2018-11-12T13:31:47.351Z,1.00
2018-11-12T13:36:52.021Z,0.90
2018-11-12T13:41:55.710Z,1.20
2018-11-12T13:46:59.700Z,0.97
2018-11-12T13:52:05.893Z,1.07
2018-11-12T13:57:15.425Z,1.20
2018-11-12T14:02:19.615Z,1.17
2018-11-12T14:07:27.601Z,1.30
2018-11-12T14:12:31.215Z,1.17
2018-11-12T14:17:37.707Z,1.10
2018-11-12T14:22:41.433Z,1.07
2018-11-12T14:28:12.809Z,1.73
2018-11-12T14:33:17.319Z,1.40
2018-11-12T14:38:21.298Z,1.30
2018-11-12T14:43:24.898Z,1.13
2018-11-12T14:48:35.147Z,1.43
2018-11-12T14:53:40.257Z,1.40
2018-11-12T14:58:43.996Z,1.23
2018-11-12T15:03:50.934Z,1.30
2018-11-12T15:08:54.835Z,1.10
2018-11-12T15:13:58.516Z,1.43
2018-11-12T15:19:07.650Z,1.83
2018-11-12T15:24:12.823Z,1.47
2018-11-12T15:35:00.481Z,2.80
2018-11-12T15:40:04.397Z,1.60
2018-11-12T15:45:18.964Z,1.97
2018-11-12T15:50:25.550Z,1.60
2018-11-12T15:55:29.863Z,2.07
2018-11-12T16:00:37.328Z,1.60
2018-11-12T16:05:40.979Z,3.80
2018-11-12T16:10:49.086Z,3.73
2018-11-12T16:15:52.630Z,1.40
2018-11-12T16:20:57.255Z,4.40
2018-11-12T16:26:00.960Z,2.97
2018-11-12T16:31:07.599Z,4.87
2018-11-12T16:36:11.158Z,4.10
2018-11-12T16:41:14.770Z,2.20
2018-11-12T16:46:18.438Z,2.73
2018-11-12T16:51:22.199Z,2.27
2018-11-12T16:56:25.899Z,2.70
2018-11-12T17:01:30.564Z,2.30
2018-11-12T17:06:34.243Z,2.10
2018-11-12T17:11:40.680Z,1.83
2018-11-12T17:16:44.301Z,2.10
2018-11-12T17:21:48.611Z,1.80
2018-11-12T17:26:52.348Z,5.17
2018-11-12T17:31:56.156Z,2.50
2018-11-12T17:36:59.699Z,2.10
2018-11-12T17:42:03.895Z,2.13
2018-11-12T17:47:07.568Z,2.93
2018-11-12T17:52:11.143Z,2.30
2018-11-12T17:57:14.973Z,2.07
2018-11-12T18:02:22.888Z,2.00
2018-11-12T18:07:26.933Z,1.93
2018-11-12T18:12:33.444Z,2.10
2018-11-12T18:17:37.403Z,2.90
2018-11-12T18:22:43.196Z,8.13
2018-11-12T18:27:49.348Z,5.27
2018-11-12T18:32:54.338Z,5.07
2018-11-12T18:37:59.701Z,4.10
2018-11-12T18:43:07.468Z,3.77
2018-11-12T18:48:11.183Z,5.90
2018-11-12T18:53:18.508Z,3.40
2018-11-12T18:58:22.171Z,2.80
2018-11-12T19:03:25.847Z,6.43
2018-11-12T19:08:33.741Z,5.97
2018-11-12T19:13:37.426Z,6.70
2018-11-12T19:18:41.135Z,5.73
2018-11-12T19:23:44.751Z,5.87
2018-11-12T19:28:48.302Z,3.40
2018-11-12T19:33:51.978Z,6.33
2018-11-12T19:38:56.368Z,4.80
2018-11-12T19:44:00.345Z,4.23
2018-11-12T19:49:03.917Z,3.93
2018-11-12T19:54:07.546Z,3.47
2018-11-12T19:59:11.249Z,11.63
2018-11-12T20:04:14.923Z,11.97
2018-11-12T20:09:18.463Z,7.20
2018-11-12T20:14:22.203Z,7.50
2018-11-12T20:19:25.810Z,6.67
2018-11-12T20:24:29.351Z,7.40
2018-11-12T20:29:32.896Z,80.30
2018-11-12T20:34:36.633Z,82.57
2018-11-12T20:39:40.170Z,59.37
2018-11-12T20:44:43.887Z,18.07
2018-11-12T20:49:47.546Z,20.80
2018-11-12T20:54:52.227Z,19.83
2018-11-12T20:59:56.898Z,19.73
2018-11-12T21:05:00.490Z,21.60
2018-11-12T21:10:05.320Z,21.73
2018-11-12T21:15:10.564Z,22.57
2018-11-12T21:20:15.713Z,23.37
2018-11-12T21:25:28.810Z,22.67
2018-11-12T21:30:34.529Z,22.03
2018-11-12T21:35:41.155Z,23.00
2018-11-12T21:40:46.202Z,23.63
2018-11-12T21:45:51.954Z,24.30
2018-11-12T21:50:55.537Z,23.17
2018-11-12T21:56:00.205Z,22.97
2018-11-12T22:01:04.044Z,22.70
2018-11-12T22:06:07.645Z,23.50
2018-11-12T22:11:11.189Z,25.43
2018-11-12T22:16:16.912Z,24.43
2018-11-12T22:21:20.451Z,23.03
2018-11-12T22:26:24.011Z,25.17
2018-11-12T22:31:27.534Z,22.33
2018-11-12T22:36:31.202Z,21.90
2018-11-12T22:41:34.798Z,21.27
2018-11-12T22:46:38.396Z,26.03
2018-11-12T22:51:42.024Z,21.03
2018-11-12T22:56:47.594Z,23.43
2018-11-12T23:01:51.259Z,24.53
2018-11-12T23:06:54.929Z,21.83
2018-11-12T23:11:58.523Z,20.10
2018-11-12T23:17:03.118Z,19.63
2018-11-12T23:22:06.694Z,19.70
2018-11-12T23:27:10.459Z,20.87
2018-11-12T23:32:14.144Z,19.87
2018-11-12T23:37:17.760Z,12.43
2018-11-12T23:42:21.419Z,10.27
2018-11-12T23:47:24.983Z,10.10
2018-11-12T23:52:29.202Z,10.03
2018-11-12T23:57:32.863Z,5.70
